Swissvale, Colorado
Current Conditions -  °F | °C
As of 11:15 PM on Friday 19 Dec 2014 (Local Time) from KANK Reporting Station
Clear Clear  
Wind Chill: 17°   Ceiling: Unl
Heat Index: 28°   Visibility: 10mi
Dew Point: 11°   Wind: 13mph
Humidity: 50%   Direction: 330°NNW
Pressure: 30.19"   Gusts: 18mph
Location:  38.5561°N, 106.066°W
Report Text: KANK 200615Z AUTO 33011G16KT 10SM CLR M02/M11 A3019 RMK AO1 T10221115
Loading
Personal Weather Stations






























Interactive Weather Map New forecast layout! Learn more

10-Day Weather Forecast

Advertisements
Track Severe Weather on mobile